createdAt,value
2022-09-04T00:02:05.682Z,101787.84
2022-09-04T00:07:21.749Z,101784.16
2022-09-04T00:12:29.677Z,101784.03
2022-09-04T00:17:41.473Z,101788.28
2022-09-04T00:22:53.771Z,101792.50
2022-09-04T00:28:07.535Z,101792.13
2022-09-04T00:33:18.447Z,101800.03
2022-09-04T00:38:36.639Z,101804.53
2022-09-04T00:44:12.893Z,101800.97
2022-09-04T00:49:43.084Z,101799.84
2022-09-04T00:55:08.553Z,101789.84
2022-09-04T01:00:15.366Z,101805.63
2022-09-04T01:05:36.118Z,101800.97
2022-09-04T01:10:51.433Z,101808.84
2022-09-04T01:15:59.922Z,101812.19
2022-09-04T01:21:17.155Z,101815.47
2022-09-04T01:26:26.349Z,101815.47
2022-09-04T01:31:39.619Z,101820.56
2022-09-04T01:36:49.800Z,101818.59
2022-09-04T01:42:01.447Z,101814.91
2022-09-04T01:47:12.594Z,101817.34
2022-09-04T01:52:36.568Z,101818.50
2022-09-04T01:57:52.093Z,101816.28
2022-09-04T02:03:01.322Z,101819.69
2022-09-04T02:08:28.516Z,101819.31
2022-09-04T02:13:43.696Z,101816.16
2022-09-04T02:18:55.597Z,101819.19
2022-09-04T02:24:07.221Z,101823.25
2022-09-04T02:29:18.294Z,101815.91
2022-09-04T02:34:28.738Z,101811.69
2022-09-04T02:39:46.331Z,101810.59
2022-09-04T02:45:02.116Z,101816.56
2022-09-04T02:50:12.893Z,101829.38
2022-09-04T02:55:30.455Z,101829.00
2022-09-04T03:00:44.136Z,101835.94
2022-09-04T03:05:54.153Z,101831.06
2022-09-04T03:11:03.344Z,101837.13
2022-09-04T03:16:17.274Z,101837.81
2022-09-04T03:21:25.047Z,101838.63
2022-09-04T03:26:30.858Z,101849.16
2022-09-04T03:31:47.043Z,101847.16
2022-09-04T03:37:04.232Z,101857.59
2022-09-04T03:42:16.794Z,101853.88
2022-09-04T03:47:28.770Z,101857.28
2022-09-04T03:52:38.888Z,101865.72
2022-09-04T03:57:57.116Z,101866.28
2022-09-04T04:03:17.688Z,101871.81
2022-09-04T04:08:42.662Z,101873.56
2022-09-04T04:14:05.422Z,101875.31
2022-09-04T04:19:27.561Z,101879.59
2022-09-04T04:24:48.805Z,101894.41
2022-09-04T04:30:06.441Z,101893.38
2022-09-04T04:35:19.183Z,101891.50
2022-09-04T04:40:33.440Z,101905.56
2022-09-04T04:45:52.681Z,101901.09
2022-09-04T04:51:07.547Z,101912.31
2022-09-04T04:56:15.892Z,101926.13
2022-09-04T05:01:29.674Z,101923.06
2022-09-04T05:06:40.864Z,101932.09
2022-09-04T05:11:54.658Z,101941.44
2022-09-04T05:17:06.461Z,101962.31
2022-09-04T05:22:19.617Z,101962.16
2022-09-04T05:27:40.402Z,101956.03
2022-09-04T05:32:55.727Z,101968.00
2022-09-04T05:38:10.028Z,101970.63
2022-09-04T05:43:26.736Z,101967.81
2022-09-04T05:48:39.188Z,101972.63
2022-09-04T05:54:09.235Z,101977.13
2022-09-04T05:59:48.713Z,101982.75
2022-09-04T06:05:04.531Z,101984.28
2022-09-04T06:10:15.505Z,101982.16
2022-09-04T06:15:34.144Z,101984.25
2022-09-04T06:20:51.275Z,101993.47
2022-09-04T06:26:19.133Z,101994.72
2022-09-04T06:31:54.361Z,102009.22
2022-09-04T06:37:07.790Z,102014.72
2022-09-04T06:42:26.181Z,102027.78
2022-09-04T06:47:42.659Z,102014.78
2022-09-04T06:52:55.891Z,102011.72
2022-09-04T06:58:20.406Z,102019.69
2022-09-04T07:03:39.244Z,102017.19
2022-09-04T07:08:55.586Z,102016.09
2022-09-04T07:14:45.059Z,102025.28
2022-09-04T07:20:09.955Z,102022.31
2022-09-04T07:25:18.388Z,102021.41
2022-09-04T07:30:26.074Z,102017.00
2022-09-04T07:35:34.606Z,102027.13
2022-09-04T07:40:42.556Z,102026.94
2022-09-04T07:45:55.349Z,102027.56
2022-09-04T07:51:10.167Z,102033.69
2022-09-04T07:56:25.500Z,102036.97
2022-09-04T08:01:49.104Z,102034.47
2022-09-04T08:06:59.657Z,102047.03
2022-09-04T08:12:35.794Z,102045.41
2022-09-04T08:17:57.895Z,102050.97
2022-09-04T08:23:13.487Z,102054.81
2022-09-04T08:28:33.344Z,102060.84
2022-09-04T08:34:01.520Z,102054.69
2022-09-04T08:39:09.632Z,102056.88
2022-09-04T08:45:01.224Z,102053.47
2022-09-04T08:50:27.540Z,102071.78
2022-09-04T08:55:41.013Z,102069.38
2022-09-04T09:01:05.197Z,102076.00
2022-09-04T09:06:29.623Z,102080.22
2022-09-04T09:12:03.984Z,102081.91
2022-09-04T09:17:13.631Z,102084.63
2022-09-04T09:22:51.067Z,102093.78
2022-09-04T09:28:30.151Z,102088.34
2022-09-04T09:34:01.749Z,102076.00
2022-09-04T09:39:34.215Z,102090.25
2022-09-04T09:45:15.152Z,102098.81
2022-09-04T09:50:42.454Z,102088.50
2022-09-04T09:56:13.526Z,102084.19
2022-09-04T10:01:35.026Z,102085.84
2022-09-04T10:07:11.520Z,102080.25
2022-09-04T10:12:57.031Z,102071.53
2022-09-04T10:18:45.504Z,102072.75
2022-09-04T10:24:20.597Z,102058.03
2022-09-04T10:29:49.683Z,102046.97
2022-09-04T10:35:19.031Z,102046.50
2022-09-04T10:40:43.287Z,102044.91
2022-09-04T10:46:01.127Z,102053.28
2022-09-04T10:51:34.632Z,102049.59
2022-09-04T10:56:47.796Z,102048.53
2022-09-04T11:02:22.339Z,102063.13
2022-09-04T11:07:51.607Z,102053.69
2022-09-04T11:13:51.753Z,102055.84
2022-09-04T11:19:19.916Z,102050.50
2022-09-04T11:25:04.328Z,102044.56
2022-09-04T11:30:17.787Z,102054.84
2022-09-04T11:35:49.134Z,102039.81
2022-09-04T11:41:28.321Z,102049.72
2022-09-04T11:46:52.296Z,102052.34
2022-09-04T11:52:26.483Z,102053.41
2022-09-04T11:57:45.329Z,102055.31
2022-09-04T12:03:32.414Z,102037.38
2022-09-04T12:09:06.886Z,102033.94
2022-09-04T12:14:24.634Z,102036.38
2022-09-04T12:19:58.866Z,102039.19
2022-09-04T12:25:27.409Z,102039.22
2022-09-04T12:30:36.006Z,102036.34
2022-09-04T12:36:15.463Z,102032.38
2022-09-04T12:41:23.329Z,102035.56
2022-09-04T12:46:50.368Z,102029.78
2022-09-04T12:52:04.875Z,102037.34
2022-09-04T12:57:24.519Z,102031.34
2022-09-04T13:02:39.175Z,102029.53
2022-09-04T13:07:54.129Z,102037.31
2022-09-04T13:13:10.865Z,102025.56
2022-09-04T13:18:24.752Z,102024.97
2022-09-04T13:23:39.345Z,102028.72
2022-09-04T13:28:56.624Z,102024.63
2022-09-04T13:34:11.249Z,102024.53
2022-09-04T13:39:39.195Z,102020.06
2022-09-04T13:45:05.617Z,102020.16
2022-09-04T13:50:18.766Z,102031.94
2022-09-04T13:55:25.980Z,102011.19
2022-09-04T14:00:33.397Z,102023.44
2022-09-04T14:05:38.559Z,102020.59
2022-09-04T14:11:11.256Z,102022.34
2022-09-04T14:16:15.852Z,102026.19
2022-09-04T14:21:31.510Z,102017.13
2022-09-04T14:26:42.464Z,102019.66
2022-09-04T14:31:58.602Z,102020.41
2022-09-04T14:37:16.202Z,102019.41
2022-09-04T14:42:45.093Z,102024.28
2022-09-04T14:47:54.816Z,102026.53
2022-09-04T14:53:03.643Z,102032.97
2022-09-04T14:58:17.912Z,102033.69
2022-09-04T15:03:25.934Z,102037.09
2022-09-04T15:08:36.788Z,102041.47
2022-09-04T15:13:55.159Z,102040.75
2022-09-04T15:19:24.369Z,102031.91
2022-09-04T15:24:33.724Z,102038.22
2022-09-04T15:29:47.508Z,102042.63
2022-09-04T15:34:51.217Z,102041.91
2022-09-04T15:40:04.334Z,102043.75
2022-09-04T15:45:16.616Z,102049.06
2022-09-04T15:50:22.754Z,102052.66
2022-09-04T15:55:31.042Z,102044.72
2022-09-04T16:00:39.077Z,102045.59
2022-09-04T16:05:47.137Z,102053.44
2022-09-04T16:11:00.439Z,102060.44
2022-09-04T16:16:11.109Z,102058.44
2022-09-04T16:21:24.412Z,102056.28
2022-09-04T16:26:32.989Z,102053.47
2022-09-04T16:31:37.216Z,102056.78
2022-09-04T16:36:44.123Z,102059.09
2022-09-04T16:41:52.258Z,102073.03
2022-09-04T16:47:04.615Z,102078.97
2022-09-04T16:52:58.600Z,102086.75
2022-09-04T16:58:49.315Z,102087.97
2022-09-04T17:04:19.804Z,102083.16
2022-09-04T17:09:29.371Z,102092.34
2022-09-04T17:14:38.103Z,102097.19
2022-09-04T17:19:42.353Z,102099.25
2022-09-04T17:29:02.193Z,102094.03
2022-09-04T17:30:25.809Z,102115.69
2022-09-04T17:40:40.357Z,102117.13
2022-09-04T17:47:34.158Z,102143.31
2022-09-04T17:52:57.910Z,102150.81
2022-09-04T17:58:07.534Z,102154.78
2022-09-04T18:03:24.924Z,102159.72
2022-09-04T18:08:37.035Z,102163.66
2022-09-04T18:13:45.274Z,102165.75
2022-09-04T18:18:52.809Z,102167.09
2022-09-04T18:24:04.569Z,102170.09
2022-09-04T18:30:11.914Z,102179.25
2022-09-04T18:37:18.592Z,102183.13
2022-09-04T18:40:39.187Z,102184.38
2022-09-04T18:50:38.247Z,102187.41
2022-09-04T18:51:25.017Z,102198.31
2022-09-04T18:56:31.581Z,102196.13
2022-09-04T19:01:43.110Z,102194.94
2022-09-04T19:07:06.829Z,102199.78
2022-09-04T19:12:17.737Z,102209.13
2022-09-04T19:17:23.727Z,102197.13
2022-09-04T19:22:32.860Z,102202.91
2022-09-04T19:27:42.070Z,102202.28
2022-09-04T19:33:02.913Z,102203.63
2022-09-04T19:41:42.944Z,102209.59
2022-09-04T19:46:25.690Z,102214.53
2022-09-04T19:53:17.966Z,102208.84
2022-09-04T19:54:57.176Z,102212.19
2022-09-04T20:00:42.668Z,102206.72
2022-09-04T20:05:53.125Z,102214.38
2022-09-04T20:11:02.634Z,102216.69
2022-09-04T20:16:19.014Z,102214.69
2022-09-04T20:21:27.163Z,102217.41
2022-09-04T20:26:32.761Z,102225.41
2022-09-04T20:31:46.902Z,102222.50
2022-09-04T20:36:56.916Z,102227.59
2022-09-04T20:42:05.923Z,102240.59
2022-09-04T20:52:41.062Z,102224.09
2022-09-04T20:53:12.323Z,102226.59
2022-09-04T21:03:11.911Z,102232.59
2022-09-04T21:04:11.278Z,102231.34
2022-09-04T21:09:30.532Z,102230.53
2022-09-04T21:14:45.522Z,102234.00
2022-09-04T21:20:25.175Z,102238.50
2022-09-04T21:25:34.483Z,102243.56
2022-09-04T21:30:54.783Z,102245.31
2022-09-04T21:36:26.972Z,102243.72
2022-09-04T21:41:46.005Z,102255.19
2022-09-04T21:47:13.113Z,102266.00
2022-09-04T21:52:47.687Z,102264.00
2022-09-04T22:02:36.670Z,102269.06
2022-09-04T22:03:57.491Z,102269.75
2022-09-04T22:13:27.431Z,102274.91
2022-09-04T22:14:37.316Z,102266.63
2022-09-04T22:19:54.994Z,102261.91
2022-09-04T22:25:28.314Z,102274.09
2022-09-04T22:30:39.121Z,102273.88
2022-09-04T22:36:13.666Z,102272.78
2022-09-04T22:41:35.974Z,102279.59
2022-09-04T22:47:24.463Z,102279.53
2022-09-04T22:52:43.258Z,102281.53
2022-09-04T22:58:06.139Z,102275.28
2022-09-04T23:03:33.303Z,102278.78
2022-09-04T23:13:49.256Z,102275.19
2022-09-04T23:14:55.035Z,102274.06
2022-09-04T23:26:31.685Z,102282.69
2022-09-04T23:26:53.129Z,102279.59
2022-09-04T23:31:48.677Z,102275.47
2022-09-04T23:37:12.957Z,102277.63
2022-09-04T23:42:40.461Z,102281.34
2022-09-04T23:48:10.831Z,102286.78
2022-09-04T23:53:21.544Z,102278.31
2022-09-04T23:58:59.419Z,102282.34
